sensor_id;sensor_type;location;lat;lon;timestamp;P1;durP1;ratioP1;P2;durP2;ratioP2
8861;SDS011;4799;50.996;4.754;2024-02-26T00:01:40;1.90;;;1.37;;
8861;SDS011;4799;50.996;4.754;2024-02-26T00:04:08;1.80;;;1.40;;
8861;SDS011;4799;50.996;4.754;2024-02-26T00:06:35;2.17;;;1.37;;
8861;SDS011;4799;50.996;4.754;2024-02-26T00:09:01;2.20;;;1.50;;
8861;SDS011;4799;50.996;4.754;2024-02-26T00:11:30;2.63;;;1.40;;
8861;SDS011;4799;50.996;4.754;2024-02-26T00:13:56;1.60;;;1.20;;
8861;SDS011;4799;50.996;4.754;2024-02-26T00:16:23;3.00;;;1.50;;
8861;SDS011;4799;50.996;4.754;2024-02-26T00:18:48;2.43;;;1.50;;
8861;SDS011;4799;50.996;4.754;2024-02-26T00:21:14;1.87;;;1.30;;
8861;SDS011;4799;50.996;4.754;2024-02-26T00:23:40;2.80;;;1.33;;
8861;SDS011;4799;50.996;4.754;2024-02-26T00:26:06;1.47;;;1.20;;
8861;SDS011;4799;50.996;4.754;2024-02-26T00:28:32;2.03;;;1.30;;
8861;SDS011;4799;50.996;4.754;2024-02-26T00:30:58;1.73;;;1.27;;
8861;SDS011;4799;50.996;4.754;2024-02-26T00:33:24;1.50;;;1.40;;
8861;SDS011;4799;50.996;4.754;2024-02-26T00:35:50;2.53;;;1.50;;
8861;SDS011;4799;50.996;4.754;2024-02-26T00:38:16;1.73;;;1.40;;
8861;SDS011;4799;50.996;4.754;2024-02-26T00:40:41;2.20;;;1.50;;
8861;SDS011;4799;50.996;4.754;2024-02-26T00:43:07;1.70;;;1.40;;
8861;SDS011;4799;50.996;4.754;2024-02-26T00:45:33;2.00;;;1.40;;
8861;SDS011;4799;50.996;4.754;2024-02-26T00:47:59;1.70;;;1.40;;
8861;SDS011;4799;50.996;4.754;2024-02-26T00:50:36;2.27;;;1.30;;
8861;SDS011;4799;50.996;4.754;2024-02-26T00:53:02;2.37;;;1.47;;
8861;SDS011;4799;50.996;4.754;2024-02-26T00:55:27;1.77;;;1.20;;
8861;SDS011;4799;50.996;4.754;2024-02-26T00:57:53;2.03;;;1.30;;
8861;SDS011;4799;50.996;4.754;2024-02-26T01:00:19;2.73;;;1.60;;
8861;SDS011;4799;50.996;4.754;2024-02-26T01:02:45;2.33;;;1.20;;
8861;SDS011;4799;50.996;4.754;2024-02-26T01:05:14;3.20;;;1.40;;
8861;SDS011;4799;50.996;4.754;2024-02-26T01:07:41;2.97;;;1.37;;
8861;SDS011;4799;50.996;4.754;2024-02-26T01:10:07;2.00;;;1.40;;
8861;SDS011;4799;50.996;4.754;2024-02-26T01:12:33;1.63;;;1.27;;
8861;SDS011;4799;50.996;4.754;2024-02-26T01:14:59;2.93;;;1.47;;
8861;SDS011;4799;50.996;4.754;2024-02-26T01:17:26;1.40;;;1.30;;
8861;SDS011;4799;50.996;4.754;2024-02-26T01:19:51;1.60;;;1.30;;
8861;SDS011;4799;50.996;4.754;2024-02-26T01:22:18;2.17;;;1.50;;
8861;SDS011;4799;50.996;4.754;2024-02-26T01:24:44;2.03;;;1.63;;
8861;SDS011;4799;50.996;4.754;2024-02-26T01:27:10;2.67;;;1.40;;
8861;SDS011;4799;50.996;4.754;2024-02-26T01:29:36;1.90;;;1.40;;
8861;SDS011;4799;50.996;4.754;2024-02-26T01:32:02;2.03;;;1.60;;
8861;SDS011;4799;50.996;4.754;2024-02-26T01:34:30;4.90;;;1.30;;
8861;SDS011;4799;50.996;4.754;2024-02-26T01:36:55;2.27;;;1.50;;
8861;SDS011;4799;50.996;4.754;2024-02-26T01:39:21;1.90;;;1.40;;
8861;SDS011;4799;50.996;4.754;2024-02-26T01:41:47;1.93;;;1.50;;
8861;SDS011;4799;50.996;4.754;2024-02-26T01:44:13;1.77;;;1.30;;
8861;SDS011;4799;50.996;4.754;2024-02-26T01:46:39;2.57;;;1.40;;
8861;SDS011;4799;50.996;4.754;2024-02-26T01:49:05;1.77;;;1.37;;
8861;SDS011;4799;50.996;4.754;2024-02-26T01:51:32;2.80;;;1.53;;
8861;SDS011;4799;50.996;4.754;2024-02-26T01:53:59;1.77;;;1.50;;
8861;SDS011;4799;50.996;4.754;2024-02-26T01:56:28;2.43;;;1.70;;
8861;SDS011;4799;50.996;4.754;2024-02-26T01:58:58;2.53;;;1.60;;
8861;SDS011;4799;50.996;4.754;2024-02-26T02:01:31;1.87;;;1.40;;
8861;SDS011;4799;50.996;4.754;2024-02-26T02:03:58;2.13;;;1.50;;
8861;SDS011;4799;50.996;4.754;2024-02-26T02:06:25;2.70;;;1.73;;
8861;SDS011;4799;50.996;4.754;2024-02-26T02:08:54;2.40;;;1.63;;
8861;SDS011;4799;50.996;4.754;2024-02-26T02:11:21;1.83;;;1.70;;
8861;SDS011;4799;50.996;4.754;2024-02-26T02:13:47;1.63;;;1.53;;
8861;SDS011;4799;50.996;4.754;2024-02-26T02:16:13;1.83;;;1.63;;
8861;SDS011;4799;50.996;4.754;2024-02-26T02:18:39;2.70;;;1.80;;
8861;SDS011;4799;50.996;4.754;2024-02-26T02:21:04;2.73;;;1.60;;
8861;SDS011;4799;50.996;4.754;2024-02-26T02:23:30;2.37;;;1.80;;
8861;SDS011;4799;50.996;4.754;2024-02-26T02:25:56;2.87;;;2.10;;
8861;SDS011;4799;50.996;4.754;2024-02-26T02:28:23;2.37;;;2.10;;
8861;SDS011;4799;50.996;4.754;2024-02-26T02:30:50;3.40;;;2.20;;
8861;SDS011;4799;50.996;4.754;2024-02-26T02:33:16;3.60;;;2.40;;
8861;SDS011;4799;50.996;4.754;2024-02-26T02:35:42;5.37;;;2.90;;
8861;SDS011;4799;50.996;4.754;2024-02-26T02:38:08;3.20;;;2.90;;
8861;SDS011;4799;50.996;4.754;2024-02-26T02:40:34;3.47;;;2.97;;
8861;SDS011;4799;50.996;4.754;2024-02-26T02:42:59;5.57;;;3.40;;
8861;SDS011;4799;50.996;4.754;2024-02-26T02:45:27;4.10;;;3.00;;
8861;SDS011;4799;50.996;4.754;2024-02-26T02:47:55;3.60;;;3.30;;
8861;SDS011;4799;50.996;4.754;2024-02-26T02:50:21;3.17;;;2.87;;
8861;SDS011;4799;50.996;4.754;2024-02-26T02:52:47;3.53;;;2.97;;
8861;SDS011;4799;50.996;4.754;2024-02-26T02:55:16;3.53;;;3.03;;
8861;SDS011;4799;50.996;4.754;2024-02-26T02:57:42;5.53;;;3.50;;
8861;SDS011;4799;50.996;4.754;2024-02-26T03:00:11;4.87;;;3.53;;
8861;SDS011;4799;50.996;4.754;2024-02-26T03:02:37;6.20;;;3.87;;
8861;SDS011;4799;50.996;4.754;2024-02-26T03:05:03;4.40;;;4.00;;
8861;SDS011;4799;50.996;4.754;2024-02-26T03:07:30;4.20;;;3.80;;
8861;SDS011;4799;50.996;4.754;2024-02-26T03:09:55;9.70;;;4.30;;
8861;SDS011;4799;50.996;4.754;2024-02-26T03:12:21;4.97;;;4.40;;
8861;SDS011;4799;50.996;4.754;2024-02-26T03:14:47;8.90;;;5.17;;
8861;SDS011;4799;50.996;4.754;2024-02-26T03:17:13;6.33;;;5.73;;
8861;SDS011;4799;50.996;4.754;2024-02-26T03:19:38;7.23;;;6.13;;
8861;SDS011;4799;50.996;4.754;2024-02-26T03:22:04;6.17;;;5.67;;
8861;SDS011;4799;50.996;4.754;2024-02-26T03:24:30;7.47;;;6.50;;
8861;SDS011;4799;50.996;4.754;2024-02-26T03:26:55;6.87;;;6.23;;
8861;SDS011;4799;50.996;4.754;2024-02-26T03:29:22;6.80;;;6.20;;
8861;SDS011;4799;50.996;4.754;2024-02-26T03:31:48;7.83;;;7.07;;
8861;SDS011;4799;50.996;4.754;2024-02-26T03:34:13;6.97;;;6.27;;
8861;SDS011;4799;50.996;4.754;2024-02-26T03:36:40;7.90;;;7.20;;
8861;SDS011;4799;50.996;4.754;2024-02-26T03:39:06;7.30;;;6.70;;
8861;SDS011;4799;50.996;4.754;2024-02-26T03:41:35;6.83;;;6.23;;
8861;SDS011;4799;50.996;4.754;2024-02-26T03:44:01;7.23;;;6.53;;
8861;SDS011;4799;50.996;4.754;2024-02-26T03:46:27;6.97;;;6.17;;
8861;SDS011;4799;50.996;4.754;2024-02-26T03:48:53;7.03;;;6.33;;
8861;SDS011;4799;50.996;4.754;2024-02-26T03:51:19;7.80;;;7.00;;
8861;SDS011;4799;50.996;4.754;2024-02-26T03:53:45;7.43;;;6.83;;
8861;SDS011;4799;50.996;4.754;2024-02-26T03:56:13;8.30;;;7.50;;
8861;SDS011;4799;50.996;4.754;2024-02-26T03:58:39;8.73;;;7.90;;
8861;SDS011;4799;50.996;4.754;2024-02-26T04:01:08;9.07;;;8.17;;
8861;SDS011;4799;50.996;4.754;2024-02-26T04:03:34;9.70;;;7.30;;
8861;SDS011;4799;50.996;4.754;2024-02-26T04:06:00;7.80;;;6.80;;
8861;SDS011;4799;50.996;4.754;2024-02-26T04:08:27;8.03;;;6.90;;
8861;SDS011;4799;50.996;4.754;2024-02-26T04:10:53;8.07;;;7.37;;
8861;SDS011;4799;50.996;4.754;2024-02-26T04:13:19;7.87;;;7.17;;
8861;SDS011;4799;50.996;4.754;2024-02-26T04:15:45;8.43;;;7.70;;
8861;SDS011;4799;50.996;4.754;2024-02-26T04:18:11;8.20;;;7.50;;
8861;SDS011;4799;50.996;4.754;2024-02-26T04:20:37;8.93;;;8.03;;
8861;SDS011;4799;50.996;4.754;2024-02-26T04:23:03;8.97;;;8.07;;
8861;SDS011;4799;50.996;4.754;2024-02-26T04:25:29;9.67;;;8.67;;
8861;SDS011;4799;50.996;4.754;2024-02-26T04:27:55;10.27;;;9.27;;
8861;SDS011;4799;50.996;4.754;2024-02-26T04:30:20;9.03;;;8.23;;
8861;SDS011;4799;50.996;4.754;2024-02-26T04:32:46;10.40;;;9.50;;
8861;SDS011;4799;50.996;4.754;2024-02-26T04:35:12;10.00;;;9.00;;
8861;SDS011;4799;50.996;4.754;2024-02-26T04:37:38;10.43;;;9.27;;
8861;SDS011;4799;50.996;4.754;2024-02-26T04:40:03;11.13;;;10.13;;
8861;SDS011;4799;50.996;4.754;2024-02-26T04:42:30;13.17;;;11.97;;
8861;SDS011;4799;50.996;4.754;2024-02-26T04:44:55;14.50;;;13.07;;
8861;SDS011;4799;50.996;4.754;2024-02-26T04:47:21;15.07;;;13.70;;
8861;SDS011;4799;50.996;4.754;2024-02-26T04:49:48;16.30;;;14.80;;
8861;SDS011;4799;50.996;4.754;2024-02-26T04:52:14;15.17;;;13.67;;
8861;SDS011;4799;50.996;4.754;2024-02-26T04:54:40;15.80;;;14.20;;
8861;SDS011;4799;50.996;4.754;2024-02-26T04:57:06;17.27;;;15.60;;
8861;SDS011;4799;50.996;4.754;2024-02-26T04:59:31;16.93;;;15.43;;
8861;SDS011;4799;50.996;4.754;2024-02-26T05:01:57;17.53;;;15.90;;
8861;SDS011;4799;50.996;4.754;2024-02-26T05:04:23;15.97;;;14.47;;
8861;SDS011;4799;50.996;4.754;2024-02-26T05:06:49;17.27;;;15.67;;
8861;SDS011;4799;50.996;4.754;2024-02-26T05:09:14;15.57;;;14.00;;
8861;SDS011;4799;50.996;4.754;2024-02-26T05:11:40;14.80;;;13.40;;
8861;SDS011;4799;50.996;4.754;2024-02-26T05:14:06;14.97;;;13.57;;
8861;SDS011;4799;50.996;4.754;2024-02-26T05:16:31;14.00;;;12.80;;
8861;SDS011;4799;50.996;4.754;2024-02-26T05:18:57;14.53;;;13.10;;
8861;SDS011;4799;50.996;4.754;2024-02-26T05:21:23;15.17;;;13.77;;
8861;SDS011;4799;50.996;4.754;2024-02-26T05:23:49;14.17;;;12.97;;
8861;SDS011;4799;50.996;4.754;2024-02-26T05:26:21;13.37;;;12.27;;
8861;SDS011;4799;50.996;4.754;2024-02-26T05:28:47;14.13;;;12.93;;
8861;SDS011;4799;50.996;4.754;2024-02-26T05:31:14;15.30;;;13.90;;
8861;SDS011;4799;50.996;4.754;2024-02-26T05:33:40;13.00;;;11.70;;
8861;SDS011;4799;50.996;4.754;2024-02-26T05:36:05;14.07;;;12.87;;
8861;SDS011;4799;50.996;4.754;2024-02-26T05:38:31;13.27;;;12.10;;
8861;SDS011;4799;50.996;4.754;2024-02-26T05:40:58;13.07;;;11.97;;
8861;SDS011;4799;50.996;4.754;2024-02-26T05:43:24;12.13;;;11.13;;
8861;SDS011;4799;50.996;4.754;2024-02-26T05:45:51;13.07;;;11.97;;
8861;SDS011;4799;50.996;4.754;2024-02-26T05:48:17;12.93;;;11.73;;
8861;SDS011;4799;50.996;4.754;2024-02-26T05:50:44;13.67;;;12.57;;
8861;SDS011;4799;50.996;4.754;2024-02-26T05:53:10;13.83;;;12.63;;
8861;SDS011;4799;50.996;4.754;2024-02-26T05:55:36;13.47;;;12.37;;
8861;SDS011;4799;50.996;4.754;2024-02-26T05:58:02;14.30;;;13.00;;
8861;SDS011;4799;50.996;4.754;2024-02-26T06:00:28;12.90;;;11.80;;
8861;SDS011;4799;50.996;4.754;2024-02-26T06:02:54;14.27;;;13.07;;
8861;SDS011;4799;50.996;4.754;2024-02-26T06:05:19;16.40;;;14.83;;
8861;SDS011;4799;50.996;4.754;2024-02-26T06:07:45;15.57;;;14.37;;
8861;SDS011;4799;50.996;4.754;2024-02-26T06:10:11;16.13;;;14.83;;
8861;SDS011;4799;50.996;4.754;2024-02-26T06:12:38;14.60;;;13.30;;
8861;SDS011;4799;50.996;4.754;2024-02-26T06:15:05;17.33;;;15.93;;
8861;SDS011;4799;50.996;4.754;2024-02-26T06:17:31;16.40;;;15.10;;
8861;SDS011;4799;50.996;4.754;2024-02-26T06:19:57;18.53;;;16.93;;
8861;SDS011;4799;50.996;4.754;2024-02-26T06:22:24;18.97;;;17.37;;
8861;SDS011;4799;50.996;4.754;2024-02-26T06:24:50;18.43;;;16.93;;
8861;SDS011;4799;50.996;4.754;2024-02-26T06:27:16;19.30;;;17.60;;
8861;SDS011;4799;50.996;4.754;2024-02-26T06:29:41;16.47;;;15.17;;
8861;SDS011;4799;50.996;4.754;2024-02-26T06:32:07;19.70;;;18.10;;
8861;SDS011;4799;50.996;4.754;2024-02-26T06:34:33;19.63;;;17.93;;
8861;SDS011;4799;50.996;4.754;2024-02-26T06:36:59;17.90;;;16.40;;
8861;SDS011;4799;50.996;4.754;2024-02-26T06:39:24;18.97;;;17.37;;
8861;SDS011;4799;50.996;4.754;2024-02-26T06:41:50;20.30;;;18.60;;
8861;SDS011;4799;50.996;4.754;2024-02-26T06:44:19;21.43;;;19.53;;
8861;SDS011;4799;50.996;4.754;2024-02-26T06:46:44;21.73;;;19.83;;
8861;SDS011;4799;50.996;4.754;2024-02-26T06:49:10;21.37;;;19.67;;
8861;SDS011;4799;50.996;4.754;2024-02-26T06:51:36;20.30;;;18.77;;
8861;SDS011;4799;50.996;4.754;2024-02-26T06:54:01;20.00;;;18.43;;
8861;SDS011;4799;50.996;4.754;2024-02-26T06:56:27;20.20;;;18.43;;
8861;SDS011;4799;50.996;4.754;2024-02-26T06:58:53;21.23;;;19.43;;
8861;SDS011;4799;50.996;4.754;2024-02-26T07:01:19;19.03;;;17.53;;
8861;SDS011;4799;50.996;4.754;2024-02-26T07:03:44;22.50;;;20.50;;
8861;SDS011;4799;50.996;4.754;2024-02-26T07:06:10;19.80;;;18.10;;
8861;SDS011;4799;50.996;4.754;2024-02-26T07:08:38;20.80;;;19.10;;
8861;SDS011;4799;50.996;4.754;2024-02-26T07:11:06;20.67;;;18.93;;
8861;SDS011;4799;50.996;4.754;2024-02-26T07:13:33;22.67;;;20.70;;
8861;SDS011;4799;50.996;4.754;2024-02-26T07:15:59;21.60;;;19.90;;
8861;SDS011;4799;50.996;4.754;2024-02-26T07:18:25;21.47;;;19.67;;
8861;SDS011;4799;50.996;4.754;2024-02-26T07:20:51;18.83;;;17.33;;
8861;SDS011;4799;50.996;4.754;2024-02-26T07:23:16;20.40;;;18.60;;
8861;SDS011;4799;50.996;4.754;2024-02-26T07:25:42;21.03;;;19.17;;
8861;SDS011;4799;50.996;4.754;2024-02-26T07:28:09;18.57;;;17.00;;
8861;SDS011;4799;50.996;4.754;2024-02-26T07:30:35;21.33;;;19.53;;
8861;SDS011;4799;50.996;4.754;2024-02-26T07:33:00;18.93;;;17.30;;
8861;SDS011;4799;50.996;4.754;2024-02-26T07:35:26;19.17;;;17.53;;
8861;SDS011;4799;50.996;4.754;2024-02-26T07:37:53;21.73;;;19.93;;
8861;SDS011;4799;50.996;4.754;2024-02-26T07:40:19;20.87;;;19.07;;
8861;SDS011;4799;50.996;4.754;2024-02-26T07:42:44;19.33;;;17.73;;
8861;SDS011;4799;50.996;4.754;2024-02-26T07:45:10;18.53;;;17.03;;
8861;SDS011;4799;50.996;4.754;2024-02-26T07:47:36;17.37;;;15.87;;
8861;SDS011;4799;50.996;4.754;2024-02-26T07:50:06;18.80;;;17.30;;
8861;SDS011;4799;50.996;4.754;2024-02-26T07:52:32;20.27;;;18.47;;
8861;SDS011;4799;50.996;4.754;2024-02-26T07:54:58;18.90;;;17.40;;
8861;SDS011;4799;50.996;4.754;2024-02-26T07:57:24;17.87;;;16.47;;
8861;SDS011;4799;50.996;4.754;2024-02-26T07:59:50;19.33;;;17.73;;
8861;SDS011;4799;50.996;4.754;2024-02-26T08:02:16;20.40;;;18.60;;
8861;SDS011;4799;50.996;4.754;2024-02-26T08:04:42;17.77;;;16.20;;
8861;SDS011;4799;50.996;4.754;2024-02-26T08:07:07;18.53;;;17.13;;
8861;SDS011;4799;50.996;4.754;2024-02-26T08:09:33;20.40;;;18.80;;
8861;SDS011;4799;50.996;4.754;2024-02-26T08:11:59;19.47;;;17.87;;
8861;SDS011;4799;50.996;4.754;2024-02-26T08:14:24;20.33;;;18.73;;
8861;SDS011;4799;50.996;4.754;2024-02-26T08:16:50;20.10;;;18.50;;
8861;SDS011;4799;50.996;4.754;2024-02-26T08:19:16;19.77;;;18.13;;
8861;SDS011;4799;50.996;4.754;2024-02-26T08:21:42;20.07;;;18.47;;
8861;SDS011;4799;50.996;4.754;2024-02-26T08:24:08;20.37;;;18.70;;
8861;SDS011;4799;50.996;4.754;2024-02-26T08:26:34;19.60;;;18.00;;
8861;SDS011;4799;50.996;4.754;2024-02-26T08:29:00;21.80;;;19.90;;
8861;SDS011;4799;50.996;4.754;2024-02-26T08:31:26;20.87;;;19.17;;
8861;SDS011;4799;50.996;4.754;2024-02-26T08:33:52;20.90;;;19.23;;
8861;SDS011;4799;50.996;4.754;2024-02-26T08:36:18;21.30;;;19.60;;
8861;SDS011;4799;50.996;4.754;2024-02-26T08:38:44;20.40;;;18.80;;
8861;SDS011;4799;50.996;4.754;2024-02-26T08:41:10;19.93;;;18.33;;
8861;SDS011;4799;50.996;4.754;2024-02-26T08:43:35;19.87;;;18.27;;
8861;SDS011;4799;50.996;4.754;2024-02-26T08:46:01;21.30;;;19.60;;
8861;SDS011;4799;50.996;4.754;2024-02-26T08:48:28;19.50;;;18.00;;
8861;SDS011;4799;50.996;4.754;2024-02-26T08:50:53;19.60;;;18.13;;
8861;SDS011;4799;50.996;4.754;2024-02-26T08:53:20;19.33;;;17.80;;
8861;SDS011;4799;50.996;4.754;2024-02-26T08:55:46;19.73;;;18.20;;
8861;SDS011;4799;50.996;4.754;2024-02-26T08:58:12;19.33;;;17.83;;
8861;SDS011;4799;50.996;4.754;2024-02-26T09:00:37;18.60;;;17.10;;
8861;SDS011;4799;50.996;4.754;2024-02-26T09:03:03;20.43;;;18.83;;
8861;SDS011;4799;50.996;4.754;2024-02-26T09:05:29;19.60;;;18.00;;
8861;SDS011;4799;50.996;4.754;2024-02-26T09:07:55;19.87;;;18.23;;
8861;SDS011;4799;50.996;4.754;2024-02-26T09:10:21;19.63;;;18.03;;
8861;SDS011;4799;50.996;4.754;2024-02-26T09:12:47;19.47;;;17.97;;
8861;SDS011;4799;50.996;4.754;2024-02-26T09:15:16;18.87;;;17.37;;
8861;SDS011;4799;50.996;4.754;2024-02-26T09:17:42;20.30;;;18.70;;
8861;SDS011;4799;50.996;4.754;2024-02-26T09:20:08;21.40;;;19.70;;
8861;SDS011;4799;50.996;4.754;2024-02-26T09:22:34;20.73;;;19.03;;
8861;SDS011;4799;50.996;4.754;2024-02-26T09:25:03;19.67;;;18.07;;
8861;SDS011;4799;50.996;4.754;2024-02-26T09:27:29;19.97;;;18.37;;
8861;SDS011;4799;50.996;4.754;2024-02-26T09:29:55;19.67;;;18.03;;
8861;SDS011;4799;50.996;4.754;2024-02-26T09:32:21;19.83;;;18.17;;
8861;SDS011;4799;50.996;4.754;2024-02-26T09:34:47;19.13;;;17.63;;
8861;SDS011;4799;50.996;4.754;2024-02-26T09:37:12;19.70;;;18.10;;
8861;SDS011;4799;50.996;4.754;2024-02-26T09:39:38;17.00;;;15.60;;
8861;SDS011;4799;50.996;4.754;2024-02-26T09:42:04;19.17;;;17.47;;
8861;SDS011;4799;50.996;4.754;2024-02-26T09:44:34;18.23;;;16.63;;
8861;SDS011;4799;50.996;4.754;2024-02-26T09:47:03;18.67;;;17.17;;
8861;SDS011;4799;50.996;4.754;2024-02-26T09:49:32;21.57;;;19.77;;
8861;SDS011;4799;50.996;4.754;2024-02-26T09:51:59;22.53;;;20.53;;
8861;SDS011;4799;50.996;4.754;2024-02-26T09:54:27;20.40;;;18.70;;
8861;SDS011;4799;50.996;4.754;2024-02-26T09:56:57;20.03;;;18.33;;
8861;SDS011;4799;50.996;4.754;2024-02-26T09:59:26;21.57;;;19.77;;
8861;SDS011;4799;50.996;4.754;2024-02-26T10:01:53;20.77;;;18.90;;
8861;SDS011;4799;50.996;4.754;2024-02-26T10:04:19;19.97;;;18.17;;
8861;SDS011;4799;50.996;4.754;2024-02-26T10:06:46;16.43;;;14.93;;
8861;SDS011;4799;50.996;4.754;2024-02-26T10:09:12;18.23;;;16.73;;
8861;SDS011;4799;50.996;4.754;2024-02-26T10:11:41;17.83;;;16.23;;
8861;SDS011;4799;50.996;4.754;2024-02-26T10:14:08;18.60;;;17.00;;
8861;SDS011;4799;50.996;4.754;2024-02-26T10:16:34;14.73;;;13.43;;
8861;SDS011;4799;50.996;4.754;2024-02-26T10:19:00;15.90;;;14.60;;
8861;SDS011;4799;50.996;4.754;2024-02-26T10:21:26;17.47;;;15.97;;
8861;SDS011;4799;50.996;4.754;2024-02-26T10:23:52;15.20;;;14.00;;
8861;SDS011;4799;50.996;4.754;2024-02-26T10:26:19;15.40;;;14.10;;
8861;SDS011;4799;50.996;4.754;2024-02-26T10:28:45;15.47;;;14.17;;
8861;SDS011;4799;50.996;4.754;2024-02-26T10:31:11;16.03;;;14.63;;
8861;SDS011;4799;50.996;4.754;2024-02-26T10:33:39;13.90;;;12.80;;
8861;SDS011;4799;50.996;4.754;2024-02-26T10:36:06;14.17;;;12.87;;
8861;SDS011;4799;50.996;4.754;2024-02-26T10:38:33;14.60;;;13.40;;
8861;SDS011;4799;50.996;4.754;2024-02-26T10:41:03;14.03;;;12.93;;
8861;SDS011;4799;50.996;4.754;2024-02-26T10:43:29;14.60;;;13.37;;
8861;SDS011;4799;50.996;4.754;2024-02-26T10:45:55;14.50;;;13.20;;
8861;SDS011;4799;50.996;4.754;2024-02-26T10:48:21;14.07;;;12.83;;
8861;SDS011;4799;50.996;4.754;2024-02-26T10:50:47;13.67;;;12.57;;
8861;SDS011;4799;50.996;4.754;2024-02-26T10:53:17;13.27;;;12.17;;
8861;SDS011;4799;50.996;4.754;2024-02-26T10:55:54;14.57;;;13.37;;
8861;SDS011;4799;50.996;4.754;2024-02-26T10:58:22;14.50;;;13.30;;
8861;SDS011;4799;50.996;4.754;2024-02-26T11:00:50;15.07;;;13.87;;
8861;SDS011;4799;50.996;4.754;2024-02-26T11:03:17;11.87;;;10.80;;
8861;SDS011;4799;50.996;4.754;2024-02-26T11:05:46;12.53;;;11.53;;
8861;SDS011;4799;50.996;4.754;2024-02-26T11:08:13;13.37;;;12.17;;
8861;SDS011;4799;50.996;4.754;2024-02-26T11:10:40;13.40;;;12.30;;
8861;SDS011;4799;50.996;4.754;2024-02-26T11:13:07;12.53;;;11.53;;
8861;SDS011;4799;50.996;4.754;2024-02-26T11:15:35;12.63;;;11.63;;
8861;SDS011;4799;50.996;4.754;2024-02-26T11:18:02;13.17;;;12.07;;
8861;SDS011;4799;50.996;4.754;2024-02-26T11:20:29;11.53;;;10.63;;
8861;SDS011;4799;50.996;4.754;2024-02-26T11:22:56;14.37;;;13.07;;
8861;SDS011;4799;50.996;4.754;2024-02-26T11:25:22;13.87;;;12.67;;
8861;SDS011;4799;50.996;4.754;2024-02-26T11:27:55;12.47;;;11.37;;
8861;SDS011;4799;50.996;4.754;2024-02-26T11:30:26;10.83;;;9.93;;
8861;SDS011;4799;50.996;4.754;2024-02-26T11:32:57;11.13;;;10.20;;
8861;SDS011;4799;50.996;4.754;2024-02-26T11:35:23;12.10;;;11.13;;
8861;SDS011;4799;50.996;4.754;2024-02-26T11:37:56;12.70;;;11.70;;
8861;SDS011;4799;50.996;4.754;2024-02-26T11:40:26;10.87;;;10.07;;
8861;SDS011;4799;50.996;4.754;2024-02-26T11:42:52;11.87;;;10.97;;
8861;SDS011;4799;50.996;4.754;2024-02-26T11:48:24;11.57;;;10.67;;
8861;SDS011;4799;50.996;4.754;2024-02-26T11:50:52;13.00;;;11.83;;
8861;SDS011;4799;50.996;4.754;2024-02-26T11:53:20;10.93;;;10.13;;
8861;SDS011;4799;50.996;4.754;2024-02-26T11:58:43;12.53;;;11.53;;
8861;SDS011;4799;50.996;4.754;2024-02-26T12:04:21;12.20;;;11.17;;
8861;SDS011;4799;50.996;4.754;2024-02-26T12:06:57;12.80;;;11.80;;
8861;SDS011;4799;50.996;4.754;2024-02-26T12:12:02;12.33;;;11.43;;
8861;SDS011;4799;50.996;4.754;2024-02-26T12:14:29;10.10;;;9.17;;
8861;SDS011;4799;50.996;4.754;2024-02-26T12:16:57;13.50;;;12.50;;
8861;SDS011;4799;50.996;4.754;2024-02-26T12:19:24;14.13;;;12.93;;
8861;SDS011;4799;50.996;4.754;2024-02-26T12:21:53;12.97;;;11.87;;
8861;SDS011;4799;50.996;4.754;2024-02-26T12:24:20;10.83;;;9.83;;
8861;SDS011;4799;50.996;4.754;2024-02-26T12:26:46;10.17;;;9.40;;
8861;SDS011;4799;50.996;4.754;2024-02-26T12:29:12;13.47;;;12.47;;
8861;SDS011;4799;50.996;4.754;2024-02-26T12:31:39;14.57;;;13.37;;
8861;SDS011;4799;50.996;4.754;2024-02-26T12:34:06;12.40;;;11.30;;
8861;SDS011;4799;50.996;4.754;2024-02-26T12:36:34;14.53;;;13.43;;
8861;SDS011;4799;50.996;4.754;2024-02-26T12:39:01;12.20;;;11.10;;
8861;SDS011;4799;50.996;4.754;2024-02-26T12:41:27;10.63;;;9.73;;
8861;SDS011;4799;50.996;4.754;2024-02-26T12:43:55;12.80;;;11.80;;
8861;SDS011;4799;50.996;4.754;2024-02-26T12:46:22;14.77;;;13.53;;
8861;SDS011;4799;50.996;4.754;2024-02-26T12:48:48;15.00;;;13.70;;
8861;SDS011;4799;50.996;4.754;2024-02-26T12:51:14;14.87;;;13.50;;
8861;SDS011;4799;50.996;4.754;2024-02-26T12:53:41;16.40;;;14.90;;
8861;SDS011;4799;50.996;4.754;2024-02-26T12:56:09;15.80;;;14.50;;
8861;SDS011;4799;50.996;4.754;2024-02-26T12:58:38;16.33;;;14.73;;
8861;SDS011;4799;50.996;4.754;2024-02-26T13:01:05;17.93;;;16.37;;
8861;SDS011;4799;50.996;4.754;2024-02-26T13:03:32;18.57;;;16.87;;
8861;SDS011;4799;50.996;4.754;2024-02-26T13:06:00;20.33;;;18.50;;
8861;SDS011;4799;50.996;4.754;2024-02-26T13:08:26;17.97;;;16.27;;
8861;SDS011;4799;50.996;4.754;2024-02-26T13:10:52;18.93;;;17.33;;
8861;SDS011;4799;50.996;4.754;2024-02-26T13:13:18;20.37;;;18.57;;
8861;SDS011;4799;50.996;4.754;2024-02-26T13:15:45;19.73;;;18.03;;
8861;SDS011;4799;50.996;4.754;2024-02-26T13:18:11;18.97;;;17.43;;
8861;SDS011;4799;50.996;4.754;2024-02-26T13:20:38;20.77;;;18.87;;
8861;SDS011;4799;50.996;4.754;2024-02-26T13:23:11;19.10;;;17.50;;
8861;SDS011;4799;50.996;4.754;2024-02-26T13:25:37;19.83;;;18.10;;
8861;SDS011;4799;50.996;4.754;2024-02-26T13:28:13;22.70;;;20.70;;
8861;SDS011;4799;50.996;4.754;2024-02-26T13:30:39;22.13;;;20.17;;
8861;SDS011;4799;50.996;4.754;2024-02-26T13:33:09;22.70;;;20.67;;
8861;SDS011;4799;50.996;4.754;2024-02-26T13:35:35;24.03;;;21.80;;
8861;SDS011;4799;50.996;4.754;2024-02-26T13:38:02;23.50;;;21.23;;
8861;SDS011;4799;50.996;4.754;2024-02-26T13:40:28;22.77;;;20.57;;
8861;SDS011;4799;50.996;4.754;2024-02-26T13:42:54;23.43;;;21.23;;
8861;SDS011;4799;50.996;4.754;2024-02-26T13:45:20;24.97;;;22.57;;
8861;SDS011;4799;50.996;4.754;2024-02-26T13:47:45;25.33;;;22.80;;
8861;SDS011;4799;50.996;4.754;2024-02-26T13:50:11;25.83;;;23.33;;
8861;SDS011;4799;50.996;4.754;2024-02-26T13:52:37;23.93;;;21.53;;
8861;SDS011;4799;50.996;4.754;2024-02-26T13:55:02;23.07;;;20.97;;
8861;SDS011;4799;50.996;4.754;2024-02-26T13:57:28;21.97;;;19.87;;
8861;SDS011;4799;50.996;4.754;2024-02-26T13:59:54;18.67;;;16.87;;
8861;SDS011;4799;50.996;4.754;2024-02-26T14:02:20;24.17;;;21.77;;
8861;SDS011;4799;50.996;4.754;2024-02-26T14:04:46;24.47;;;22.07;;
8861;SDS011;4799;50.996;4.754;2024-02-26T14:07:12;23.43;;;21.20;;
8861;SDS011;4799;50.996;4.754;2024-02-26T14:09:38;22.10;;;19.80;;
8861;SDS011;4799;50.996;4.754;2024-02-26T14:12:04;23.30;;;21.00;;
8861;SDS011;4799;50.996;4.754;2024-02-26T14:14:30;25.87;;;23.37;;
8861;SDS011;4799;50.996;4.754;2024-02-26T14:17:00;26.07;;;23.47;;
8861;SDS011;4799;50.996;4.754;2024-02-26T14:19:26;20.47;;;18.43;;
8861;SDS011;4799;50.996;4.754;2024-02-26T14:21:52;22.30;;;20.03;;
8861;SDS011;4799;50.996;4.754;2024-02-26T14:24:17;21.90;;;19.70;;
8861;SDS011;4799;50.996;4.754;2024-02-26T14:26:43;22.27;;;19.87;;
8861;SDS011;4799;50.996;4.754;2024-02-26T14:29:09;21.20;;;19.10;;
8861;SDS011;4799;50.996;4.754;2024-02-26T14:31:34;20.23;;;18.00;;
8861;SDS011;4799;50.996;4.754;2024-02-26T14:34:00;21.73;;;18.73;;
8861;SDS011;4799;50.996;4.754;2024-02-26T14:36:26;22.53;;;20.13;;
8861;SDS011;4799;50.996;4.754;2024-02-26T14:38:52;24.07;;;21.20;;
8861;SDS011;4799;50.996;4.754;2024-02-26T14:41:17;20.00;;;17.87;;
8861;SDS011;4799;50.996;4.754;2024-02-26T14:43:43;19.87;;;17.03;;
8861;SDS011;4799;50.996;4.754;2024-02-26T14:46:09;23.10;;;18.27;;
8861;SDS011;4799;50.996;4.754;2024-02-26T14:48:34;24.60;;;19.37;;
8861;SDS011;4799;50.996;4.754;2024-02-26T14:51:00;19.67;;;15.20;;
8861;SDS011;4799;50.996;4.754;2024-02-26T14:53:26;22.20;;;17.70;;
8861;SDS011;4799;50.996;4.754;2024-02-26T14:55:52;22.63;;;17.87;;
8861;SDS011;4799;50.996;4.754;2024-02-26T14:58:18;23.83;;;16.77;;
8861;SDS011;4799;50.996;4.754;2024-02-26T15:00:44;24.67;;;20.13;;
8861;SDS011;4799;50.996;4.754;2024-02-26T15:03:10;24.47;;;19.97;;